sensor_id;sensor_type;location;lat;lon;timestamp;temperature;humidity
48994;DHT22;34804;49.214;12.276;2024-02-21T00:00:53;5.70;83.00
48994;DHT22;34804;49.214;12.276;2024-02-21T00:03:20;5.70;83.30
48994;DHT22;34804;49.214;12.276;2024-02-21T00:05:47;5.70;83.10
48994;DHT22;34804;49.214;12.276;2024-02-21T00:08:14;5.60;83.20
48994;DHT22;34804;49.214;12.276;2024-02-21T00:10:41;5.60;83.20
48994;DHT22;34804;49.214;12.276;2024-02-21T00:13:08;5.70;83.00
48994;DHT22;34804;49.214;12.276;2024-02-21T00:15:35;5.70;83.00
48994;DHT22;34804;49.214;12.276;2024-02-21T00:18:02;5.80;82.60
48994;DHT22;34804;49.214;12.276;2024-02-21T00:20:29;5.80;82.40
48994;DHT22;34804;49.214;12.276;2024-02-21T00:22:56;5.80;82.20
48994;DHT22;34804;49.214;12.276;2024-02-21T00:25:23;5.90;82.00
48994;DHT22;34804;49.214;12.276;2024-02-21T00:27:50;5.90;82.50
48994;DHT22;34804;49.214;12.276;2024-02-21T00:30:17;5.90;82.50
48994;DHT22;34804;49.214;12.276;2024-02-21T00:32:44;5.90;82.40
48994;DHT22;34804;49.214;12.276;2024-02-21T00:35:11;5.90;82.40
48994;DHT22;34804;49.214;12.276;2024-02-21T00:37:39;5.80;82.70
48994;DHT22;34804;49.214;12.276;2024-02-21T00:40:06;5.80;82.90
48994;DHT22;34804;49.214;12.276;2024-02-21T00:42:33;5.80;83.20
48994;DHT22;34804;49.214;12.276;2024-02-21T00:45:00;5.80;83.00
48994;DHT22;34804;49.214;12.276;2024-02-21T00:47:27;5.90;82.70
48994;DHT22;34804;49.214;12.276;2024-02-21T00:49:54;5.90;82.70
48994;DHT22;34804;49.214;12.276;2024-02-21T00:52:22;5.90;82.60
48994;DHT22;34804;49.214;12.276;2024-02-21T00:54:48;6.00;82.40
48994;DHT22;34804;49.214;12.276;2024-02-21T00:57:20;6.00;82.40
48994;DHT22;34804;49.214;12.276;2024-02-21T00:59:47;6.10;82.00
48994;DHT22;34804;49.214;12.276;2024-02-21T01:02:14;6.10;82.20
48994;DHT22;34804;49.214;12.276;2024-02-21T01:04:41;6.10;82.70
48994;DHT22;34804;49.214;12.276;2024-02-21T01:07:08;6.10;82.10
48994;DHT22;34804;49.214;12.276;2024-02-21T01:09:35;6.10;82.70
48994;DHT22;34804;49.214;12.276;2024-02-21T01:12:02;6.00;83.20
48994;DHT22;34804;49.214;12.276;2024-02-21T01:14:29;6.00;83.20
48994;DHT22;34804;49.214;12.276;2024-02-21T01:16:55;6.00;83.30
48994;DHT22;34804;49.214;12.276;2024-02-21T01:19:22;5.90;83.30
48994;DHT22;34804;49.214;12.276;2024-02-21T01:21:50;5.80;83.40
48994;DHT22;34804;49.214;12.276;2024-02-21T01:24:16;5.80;83.60
48994;DHT22;34804;49.214;12.276;2024-02-21T01:26:43;5.80;83.40
48994;DHT22;34804;49.214;12.276;2024-02-21T01:29:10;5.80;83.60
48994;DHT22;34804;49.214;12.276;2024-02-21T01:31:37;5.80;83.80
48994;DHT22;34804;49.214;12.276;2024-02-21T01:34:04;5.80;83.70
48994;DHT22;34804;49.214;12.276;2024-02-21T01:36:31;5.80;83.90
48994;DHT22;34804;49.214;12.276;2024-02-21T01:38:57;5.90;83.80
48994;DHT22;34804;49.214;12.276;2024-02-21T01:41:24;5.90;83.60
48994;DHT22;34804;49.214;12.276;2024-02-21T01:43:51;5.90;83.50
48994;DHT22;34804;49.214;12.276;2024-02-21T01:46:18;5.90;84.10
48994;DHT22;34804;49.214;12.276;2024-02-21T01:48:45;5.80;84.10
48994;DHT22;34804;49.214;12.276;2024-02-21T01:51:13;5.90;83.60
48994;DHT22;34804;49.214;12.276;2024-02-21T01:53:43;5.90;83.30
48994;DHT22;34804;49.214;12.276;2024-02-21T01:56:12;5.90;83.40
48994;DHT22;34804;49.214;12.276;2024-02-21T01:58:40;5.90;83.50
48994;DHT22;34804;49.214;12.276;2024-02-21T02:01:10;5.90;83.70
48994;DHT22;34804;49.214;12.276;2024-02-21T02:03:37;5.80;83.70
48994;DHT22;34804;49.214;12.276;2024-02-21T02:06:07;5.90;83.40
48994;DHT22;34804;49.214;12.276;2024-02-21T02:08:34;5.90;83.50
48994;DHT22;34804;49.214;12.276;2024-02-21T02:11:01;5.90;83.80
48994;DHT22;34804;49.214;12.276;2024-02-21T02:13:28;5.90;83.20
48994;DHT22;34804;49.214;12.276;2024-02-21T02:15:55;5.90;83.10
48994;DHT22;34804;49.214;12.276;2024-02-21T02:18:22;5.90;82.90
48994;DHT22;34804;49.214;12.276;2024-02-21T02:20:49;6.00;83.00
48994;DHT22;34804;49.214;12.276;2024-02-21T02:25:53;5.90;82.80
48994;DHT22;34804;49.214;12.276;2024-02-21T02:28:21;5.90;83.50
48994;DHT22;34804;49.214;12.276;2024-02-21T02:30:48;5.90;83.50
48994;DHT22;34804;49.214;12.276;2024-02-21T02:33:16;5.80;83.70
48994;DHT22;34804;49.214;12.276;2024-02-21T02:35:46;5.80;84.00
48994;DHT22;34804;49.214;12.276;2024-02-21T02:38:13;5.70;83.80
48994;DHT22;34804;49.214;12.276;2024-02-21T02:40:41;5.70;83.90
48994;DHT22;34804;49.214;12.276;2024-02-21T02:43:08;5.70;83.70
48994;DHT22;34804;49.214;12.276;2024-02-21T02:45:36;5.60;83.60
48994;DHT22;34804;49.214;12.276;2024-02-21T02:48:03;5.50;84.10
48994;DHT22;34804;49.214;12.276;2024-02-21T02:50:31;5.40;84.70
48994;DHT22;34804;49.214;12.276;2024-02-21T02:52:58;5.40;84.70
48994;DHT22;34804;49.214;12.276;2024-02-21T02:55:26;5.40;84.80
48994;DHT22;34804;49.214;12.276;2024-02-21T02:57:54;5.30;84.90
48994;DHT22;34804;49.214;12.276;2024-02-21T03:00:21;5.40;85.10
48994;DHT22;34804;49.214;12.276;2024-02-21T03:02:49;5.40;85.10
48994;DHT22;34804;49.214;12.276;2024-02-21T03:05:18;5.40;85.30
48994;DHT22;34804;49.214;12.276;2024-02-21T03:07:46;5.40;85.40
48994;DHT22;34804;49.214;12.276;2024-02-21T03:10:14;5.40;85.20
48994;DHT22;34804;49.214;12.276;2024-02-21T03:12:44;5.40;85.60
48994;DHT22;34804;49.214;12.276;2024-02-21T03:15:13;5.40;86.00
48994;DHT22;34804;49.214;12.276;2024-02-21T03:17:41;5.40;85.60
48994;DHT22;34804;49.214;12.276;2024-02-21T03:20:10;5.40;85.60
48994;DHT22;34804;49.214;12.276;2024-02-21T03:22:39;5.40;85.40
48994;DHT22;34804;49.214;12.276;2024-02-21T03:25:08;5.40;85.60
48994;DHT22;34804;49.214;12.276;2024-02-21T03:27:35;5.40;85.70
48994;DHT22;34804;49.214;12.276;2024-02-21T03:30:02;5.40;85.40
48994;DHT22;34804;49.214;12.276;2024-02-21T03:32:31;5.40;85.40
48994;DHT22;34804;49.214;12.276;2024-02-21T03:34:58;5.40;85.60
48994;DHT22;34804;49.214;12.276;2024-02-21T03:37:25;5.50;85.70
48994;DHT22;34804;49.214;12.276;2024-02-21T03:39:52;5.50;85.50
48994;DHT22;34804;49.214;12.276;2024-02-21T03:42:19;5.50;85.40
48994;DHT22;34804;49.214;12.276;2024-02-21T03:44:46;5.50;85.50
48994;DHT22;34804;49.214;12.276;2024-02-21T03:47:13;5.50;85.60
48994;DHT22;34804;49.214;12.276;2024-02-21T03:49:39;5.50;85.60
48994;DHT22;34804;49.214;12.276;2024-02-21T03:52:06;5.50;85.70
48994;DHT22;34804;49.214;12.276;2024-02-21T03:54:34;5.40;85.90
48994;DHT22;34804;49.214;12.276;2024-02-21T03:57:01;5.40;85.60
48994;DHT22;34804;49.214;12.276;2024-02-21T03:59:29;5.50;85.40
48994;DHT22;34804;49.214;12.276;2024-02-21T04:01:56;5.40;85.70
48994;DHT22;34804;49.214;12.276;2024-02-21T04:04:23;5.40;85.70
48994;DHT22;34804;49.214;12.276;2024-02-21T04:06:50;5.40;85.70
48994;DHT22;34804;49.214;12.276;2024-02-21T04:09:17;5.40;85.80
48994;DHT22;34804;49.214;12.276;2024-02-21T04:11:44;5.40;85.90
48994;DHT22;34804;49.214;12.276;2024-02-21T04:14:11;5.40;86.20
48994;DHT22;34804;49.214;12.276;2024-02-21T04:16:39;5.40;86.50
48994;DHT22;34804;49.214;12.276;2024-02-21T04:19:06;5.40;86.50
48994;DHT22;34804;49.214;12.276;2024-02-21T04:21:34;5.40;86.20
48994;DHT22;34804;49.214;12.276;2024-02-21T04:24:01;5.30;86.80
48994;DHT22;34804;49.214;12.276;2024-02-21T04:26:28;5.40;86.60
48994;DHT22;34804;49.214;12.276;2024-02-21T04:28:55;5.40;86.40
48994;DHT22;34804;49.214;12.276;2024-02-21T04:31:22;5.40;86.60
48994;DHT22;34804;49.214;12.276;2024-02-21T04:33:49;5.30;86.30
48994;DHT22;34804;49.214;12.276;2024-02-21T04:36:16;5.40;86.60
48994;DHT22;34804;49.214;12.276;2024-02-21T04:38:43;5.40;86.50
48994;DHT22;34804;49.214;12.276;2024-02-21T04:41:10;5.40;86.40
48994;DHT22;34804;49.214;12.276;2024-02-21T04:43:37;5.40;86.00
48994;DHT22;34804;49.214;12.276;2024-02-21T04:46:04;5.40;86.30
48994;DHT22;34804;49.214;12.276;2024-02-21T04:48:31;5.40;86.00
48994;DHT22;34804;49.214;12.276;2024-02-21T04:50:58;5.40;86.10
48994;DHT22;34804;49.214;12.276;2024-02-21T04:53:25;5.40;86.00
48994;DHT22;34804;49.214;12.276;2024-02-21T04:55:52;5.40;86.20
48994;DHT22;34804;49.214;12.276;2024-02-21T04:58:18;5.50;86.20
48994;DHT22;34804;49.214;12.276;2024-02-21T05:00:45;5.40;86.10
48994;DHT22;34804;49.214;12.276;2024-02-21T05:03:30;5.50;86.40
48994;DHT22;34804;49.214;12.276;2024-02-21T05:05:59;5.50;86.40
48994;DHT22;34804;49.214;12.276;2024-02-21T05:08:26;5.50;86.20
48994;DHT22;34804;49.214;12.276;2024-02-21T05:10:55;5.40;86.20
48994;DHT22;34804;49.214;12.276;2024-02-21T05:13:22;5.50;86.20
48994;DHT22;34804;49.214;12.276;2024-02-21T05:15:49;5.50;86.10
48994;DHT22;34804;49.214;12.276;2024-02-21T05:18:15;5.50;86.20
48994;DHT22;34804;49.214;12.276;2024-02-21T05:20:42;5.40;86.20
48994;DHT22;34804;49.214;12.276;2024-02-21T05:23:09;5.40;86.00
48994;DHT22;34804;49.214;12.276;2024-02-21T05:25:36;5.40;86.20
48994;DHT22;34804;49.214;12.276;2024-02-21T05:28:04;5.40;86.00
48994;DHT22;34804;49.214;12.276;2024-02-21T05:30:32;5.40;86.10
48994;DHT22;34804;49.214;12.276;2024-02-21T05:33:03;5.40;86.00
48994;DHT22;34804;49.214;12.276;2024-02-21T05:35:30;5.20;86.20
48994;DHT22;34804;49.214;12.276;2024-02-21T05:37:57;5.20;86.40
48994;DHT22;34804;49.214;12.276;2024-02-21T05:40:24;5.20;86.20
48994;DHT22;34804;49.214;12.276;2024-02-21T05:42:52;5.20;86.10
48994;DHT22;34804;49.214;12.276;2024-02-21T05:45:18;5.20;85.90
48994;DHT22;34804;49.214;12.276;2024-02-21T05:47:45;5.20;85.60
48994;DHT22;34804;49.214;12.276;2024-02-21T05:50:12;5.10;85.90
48994;DHT22;34804;49.214;12.276;2024-02-21T05:52:39;5.00;86.00
48994;DHT22;34804;49.214;12.276;2024-02-21T05:55:07;4.90;86.00
48994;DHT22;34804;49.214;12.276;2024-02-21T05:57:35;4.90;86.30
48994;DHT22;34804;49.214;12.276;2024-02-21T06:00:06;4.80;86.50
48994;DHT22;34804;49.214;12.276;2024-02-21T06:02:33;4.80;86.60
48994;DHT22;34804;49.214;12.276;2024-02-21T06:05:00;4.80;86.70
48994;DHT22;34804;49.214;12.276;2024-02-21T06:07:28;4.90;86.60
48994;DHT22;34804;49.214;12.276;2024-02-21T06:09:55;4.80;86.50
48994;DHT22;34804;49.214;12.276;2024-02-21T06:12:22;4.80;86.50
48994;DHT22;34804;49.214;12.276;2024-02-21T06:14:49;4.80;86.60
48994;DHT22;34804;49.214;12.276;2024-02-21T06:17:15;4.80;86.70
48994;DHT22;34804;49.214;12.276;2024-02-21T06:19:43;4.80;86.70
48994;DHT22;34804;49.214;12.276;2024-02-21T06:22:11;4.80;86.80
48994;DHT22;34804;49.214;12.276;2024-02-21T06:24:38;4.70;86.80
48994;DHT22;34804;49.214;12.276;2024-02-21T06:27:05;4.70;86.90
48994;DHT22;34804;49.214;12.276;2024-02-21T06:29:37;4.70;87.10
48994;DHT22;34804;49.214;12.276;2024-02-21T06:32:04;4.70;87.20
48994;DHT22;34804;49.214;12.276;2024-02-21T06:34:31;4.80;87.40
48994;DHT22;34804;49.214;12.276;2024-02-21T06:37:00;4.80;87.40
48994;DHT22;34804;49.214;12.276;2024-02-21T06:39:29;4.90;87.30
48994;DHT22;34804;49.214;12.276;2024-02-21T06:41:56;5.00;87.20
48994;DHT22;34804;49.214;12.276;2024-02-21T06:44:29;5.00;86.90
48994;DHT22;34804;49.214;12.276;2024-02-21T06:46:55;5.10;86.50
48994;DHT22;34804;49.214;12.276;2024-02-21T06:49:22;5.10;86.10
48994;DHT22;34804;49.214;12.276;2024-02-21T06:51:49;5.20;86.20
48994;DHT22;34804;49.214;12.276;2024-02-21T06:54:17;5.30;86.30
48994;DHT22;34804;49.214;12.276;2024-02-21T06:56:44;5.40;86.40
48994;DHT22;34804;49.214;12.276;2024-02-21T06:59:11;5.40;85.80
48994;DHT22;34804;49.214;12.276;2024-02-21T07:01:49;5.40;85.90
48994;DHT22;34804;49.214;12.276;2024-02-21T07:04:16;5.40;85.70
48994;DHT22;34804;49.214;12.276;2024-02-21T07:06:43;5.40;85.80
48994;DHT22;34804;49.214;12.276;2024-02-21T07:09:10;5.40;85.70
48994;DHT22;34804;49.214;12.276;2024-02-21T07:11:37;5.30;85.60
48994;DHT22;34804;49.214;12.276;2024-02-21T07:14:04;5.30;85.60
48994;DHT22;34804;49.214;12.276;2024-02-21T07:16:30;5.30;85.40
48994;DHT22;34804;49.214;12.276;2024-02-21T07:18:59;5.30;85.30
48994;DHT22;34804;49.214;12.276;2024-02-21T07:21:26;5.30;85.30
48994;DHT22;34804;49.214;12.276;2024-02-21T07:23:53;5.40;85.40
48994;DHT22;34804;49.214;12.276;2024-02-21T07:26:20;5.40;85.20
48994;DHT22;34804;49.214;12.276;2024-02-21T07:28:46;5.40;84.90
48994;DHT22;34804;49.214;12.276;2024-02-21T07:31:13;5.50;85.10
48994;DHT22;34804;49.214;12.276;2024-02-21T07:33:40;5.50;84.90
48994;DHT22;34804;49.214;12.276;2024-02-21T07:36:09;5.40;85.60
48994;DHT22;34804;49.214;12.276;2024-02-21T07:38:37;5.50;85.60
48994;DHT22;34804;49.214;12.276;2024-02-21T07:41:03;5.50;85.40
48994;DHT22;34804;49.214;12.276;2024-02-21T07:43:31;5.40;86.00
48994;DHT22;34804;49.214;12.276;2024-02-21T07:45:57;5.50;85.60
48994;DHT22;34804;49.214;12.276;2024-02-21T07:48:24;5.60;85.40
48994;DHT22;34804;49.214;12.276;2024-02-21T07:50:51;5.60;85.10
48994;DHT22;34804;49.214;12.276;2024-02-21T07:53:19;5.70;85.30
48994;DHT22;34804;49.214;12.276;2024-02-21T07:55:46;5.80;85.00
48994;DHT22;34804;49.214;12.276;2024-02-21T07:58:13;5.80;85.30
48994;DHT22;34804;49.214;12.276;2024-02-21T08:00:40;5.90;84.60
48994;DHT22;34804;49.214;12.276;2024-02-21T08:03:07;6.00;84.30
48994;DHT22;34804;49.214;12.276;2024-02-21T08:05:35;6.00;84.00
48994;DHT22;34804;49.214;12.276;2024-02-21T08:08:03;6.10;83.80
48994;DHT22;34804;49.214;12.276;2024-02-21T08:10:30;6.20;83.90
48994;DHT22;34804;49.214;12.276;2024-02-21T08:12:57;6.30;83.50
48994;DHT22;34804;49.214;12.276;2024-02-21T08:15:24;6.30;83.60
48994;DHT22;34804;49.214;12.276;2024-02-21T08:17:58;6.50;82.50
48994;DHT22;34804;49.214;12.276;2024-02-21T08:20:28;6.60;82.90
48994;DHT22;34804;49.214;12.276;2024-02-21T08:22:55;6.60;82.40
48994;DHT22;34804;49.214;12.276;2024-02-21T08:25:22;6.60;81.80
48994;DHT22;34804;49.214;12.276;2024-02-21T08:27:53;6.70;81.90
48994;DHT22;34804;49.214;12.276;2024-02-21T08:30:20;6.80;82.00
48994;DHT22;34804;49.214;12.276;2024-02-21T08:32:47;6.80;82.00
48994;DHT22;34804;49.214;12.276;2024-02-21T08:35:13;7.00;81.80
48994;DHT22;34804;49.214;12.276;2024-02-21T08:37:40;7.10;81.10
48994;DHT22;34804;49.214;12.276;2024-02-21T08:40:09;7.00;80.40
48994;DHT22;34804;49.214;12.276;2024-02-21T08:42:38;7.00;80.70
48994;DHT22;34804;49.214;12.276;2024-02-21T08:45:05;7.10;81.50
48994;DHT22;34804;49.214;12.276;2024-02-21T08:47:32;7.20;80.70
48994;DHT22;34804;49.214;12.276;2024-02-21T08:49:59;7.30;81.10
48994;DHT22;34804;49.214;12.276;2024-02-21T08:52:40;7.30;79.80
48994;DHT22;34804;49.214;12.276;2024-02-21T08:55:08;7.40;80.60
48994;DHT22;34804;49.214;12.276;2024-02-21T08:57:35;7.40;79.60
48994;DHT22;34804;49.214;12.276;2024-02-21T09:00:04;7.50;79.80
48994;DHT22;34804;49.214;12.276;2024-02-21T09:02:41;7.60;80.40
48994;DHT22;34804;49.214;12.276;2024-02-21T09:05:10;7.70;79.20
48994;DHT22;34804;49.214;12.276;2024-02-21T09:07:37;7.60;80.20
48994;DHT22;34804;49.214;12.276;2024-02-21T09:10:05;7.70;79.30
48994;DHT22;34804;49.214;12.276;2024-02-21T09:12:32;7.70;80.30
48994;DHT22;34804;49.214;12.276;2024-02-21T09:14:59;7.60;79.80
48994;DHT22;34804;49.214;12.276;2024-02-21T09:17:26;7.60;79.40
48994;DHT22;34804;49.214;12.276;2024-02-21T09:19:56;7.60;79.30
48994;DHT22;34804;49.214;12.276;2024-02-21T09:22:26;7.60;78.40
48994;DHT22;34804;49.214;12.276;2024-02-21T09:24:53;7.60;78.50
48994;DHT22;34804;49.214;12.276;2024-02-21T09:27:20;7.50;79.10
48994;DHT22;34804;49.214;12.276;2024-02-21T09:29:47;7.50;78.40
48994;DHT22;34804;49.214;12.276;2024-02-21T09:32:14;7.60;79.60
48994;DHT22;34804;49.214;12.276;2024-02-21T09:34:41;7.90;79.10
48994;DHT22;34804;49.214;12.276;2024-02-21T09:37:08;8.20;77.70
48994;DHT22;34804;49.214;12.276;2024-02-21T09:39:35;8.40;78.20
48994;DHT22;34804;49.214;12.276;2024-02-21T09:42:06;8.70;76.80
48994;DHT22;34804;49.214;12.276;2024-02-21T09:44:37;8.80;76.20
48994;DHT22;34804;49.214;12.276;2024-02-21T09:47:46;8.90;75.00
48994;DHT22;34804;49.214;12.276;2024-02-21T09:50:15;9.00;74.80
48994;DHT22;34804;49.214;12.276;2024-02-21T09:52:43;9.20;74.80
48994;DHT22;34804;49.214;12.276;2024-02-21T09:55:10;9.10;74.10
48994;DHT22;34804;49.214;12.276;2024-02-21T09:57:39;9.20;74.50
48994;DHT22;34804;49.214;12.276;2024-02-21T10:00:06;9.20;74.10
48994;DHT22;34804;49.214;12.276;2024-02-21T10:02:36;9.40;76.50
48994;DHT22;34804;49.214;12.276;2024-02-21T10:05:03;9.60;74.00
48994;DHT22;34804;49.214;12.276;2024-02-21T10:07:31;9.70;72.30
48994;DHT22;34804;49.214;12.276;2024-02-21T10:10:05;9.70;72.80
48994;DHT22;34804;49.214;12.276;2024-02-21T10:12:32;9.70;71.40
48994;DHT22;34804;49.214;12.276;2024-02-21T10:15:06;9.80;72.30
48994;DHT22;34804;49.214;12.276;2024-02-21T10:17:33;10.00;71.40
48994;DHT22;34804;49.214;12.276;2024-02-21T10:20:07;9.90;71.60
48994;DHT22;34804;49.214;12.276;2024-02-21T10:22:38;10.00;72.20
48994;DHT22;34804;49.214;12.276;2024-02-21T10:25:10;10.10;73.60
48994;DHT22;34804;49.214;12.276;2024-02-21T10:27:38;10.20;69.80
48994;DHT22;34804;49.214;12.276;2024-02-21T10:30:13;10.00;69.60
48994;DHT22;34804;49.214;12.276;2024-02-21T10:32:51;10.10;70.10
48994;DHT22;34804;49.214;12.276;2024-02-21T10:35:26;10.20;72.00
48994;DHT22;34804;49.214;12.276;2024-02-21T10:37:57;10.30;69.70
48994;DHT22;34804;49.214;12.276;2024-02-21T10:40:29;10.10;68.70
48994;DHT22;34804;49.214;12.276;2024-02-21T10:43:01;10.30;71.40
48994;DHT22;34804;49.214;12.276;2024-02-21T10:45:34;10.30;69.60
48994;DHT22;34804;49.214;12.276;2024-02-21T10:48:12;10.40;68.40
48994;DHT22;34804;49.214;12.276;2024-02-21T10:56:16;10.60;68.70
48994;DHT22;34804;49.214;12.276;2024-02-21T10:58:48;10.90;70.40
48994;DHT22;34804;49.214;12.276;2024-02-21T11:01:16;10.80;67.80
48994;DHT22;34804;49.214;12.276;2024-02-21T11:03:46;10.80;66.50
48994;DHT22;34804;49.214;12.276;2024-02-21T11:06:15;11.00;66.10
48994;DHT22;34804;49.214;12.276;2024-02-21T11:08:43;11.30;67.20
48994;DHT22;34804;49.214;12.276;2024-02-21T11:11:13;11.10;66.10
48994;DHT22;34804;49.214;12.276;2024-02-21T11:14:07;11.10;66.40
48994;DHT22;34804;49.214;12.276;2024-02-21T11:16:36;11.40;65.10
48994;DHT22;34804;49.214;12.276;2024-02-21T11:19:05;11.20;62.80
48994;DHT22;34804;49.214;12.276;2024-02-21T11:21:34;11.30;65.60
48994;DHT22;34804;49.214;12.276;2024-02-21T11:24:05;11.50;64.60
48994;DHT22;34804;49.214;12.276;2024-02-21T11:26:32;11.60;64.50
48994;DHT22;34804;49.214;12.276;2024-02-21T11:29:02;11.60;66.70
48994;DHT22;34804;49.214;12.276;2024-02-21T11:31:43;11.40;65.50
48994;DHT22;34804;49.214;12.276;2024-02-21T11:34:11;11.50;65.20
48994;DHT22;34804;49.214;12.276;2024-02-21T11:37:13;11.80;67.40
48994;DHT22;34804;49.214;12.276;2024-02-21T11:39:42;11.80;64.50
48994;DHT22;34804;49.214;12.276;2024-02-21T11:42:09;11.80;66.30
48994;DHT22;34804;49.214;12.276;2024-02-21T11:44:38;11.50;65.90
48994;DHT22;34804;49.214;12.276;2024-02-21T11:47:06;11.40;65.00
48994;DHT22;34804;49.214;12.276;2024-02-21T11:49:46;11.40;63.60
48994;DHT22;34804;49.214;12.276;2024-02-21T11:52:13;11.90;67.50
48994;DHT22;34804;49.214;12.276;2024-02-21T11:54:42;11.80;62.00
48994;DHT22;34804;49.214;12.276;2024-02-21T11:57:10;11.90;63.50
48994;DHT22;34804;49.214;12.276;2024-02-21T11:59:40;11.90;63.20
48994;DHT22;34804;49.214;12.276;2024-02-21T12:02:07;11.90;65.10
48994;DHT22;34804;49.214;12.276;2024-02-21T12:04:35;12.30;63.60
48994;DHT22;34804;49.214;12.276;2024-02-21T12:07:03;12.30;63.80
48994;DHT22;34804;49.214;12.276;2024-02-21T12:09:31;12.40;63.00
48994;DHT22;34804;49.214;12.276;2024-02-21T12:12:00;12.40;60.30
48994;DHT22;34804;49.214;12.276;2024-02-21T12:14:28;12.30;61.70
48994;DHT22;34804;49.214;12.276;2024-02-21T12:16:56;12.00;63.30
48994;DHT22;34804;49.214;12.276;2024-02-21T12:19:23;12.10;61.30
48994;DHT22;34804;49.214;12.276;2024-02-21T12:21:50;12.10;65.10
48994;DHT22;34804;49.214;12.276;2024-02-21T12:24:25;12.30;61.00
48994;DHT22;34804;49.214;12.276;2024-02-21T12:26:54;12.20;60.40
48994;DHT22;34804;49.214;12.276;2024-02-21T12:29:21;12.40;61.80
48994;DHT22;34804;49.214;12.276;2024-02-21T12:31:49;12.40;60.80
48994;DHT22;34804;49.214;12.276;2024-02-21T12:34:16;13.10;60.50
48994;DHT22;34804;49.214;12.276;2024-02-21T12:36:56;13.40;58.40
48994;DHT22;34804;49.214;12.276;2024-02-21T12:39:23;13.10;60.10
48994;DHT22;34804;49.214;12.276;2024-02-21T12:41:50;12.60;60.60
48994;DHT22;34804;49.214;12.276;2024-02-21T12:44:17;12.50;60.80
48994;DHT22;34804;49.214;12.276;2024-02-21T12:46:45;12.30;60.10
48994;DHT22;34804;49.214;12.276;2024-02-21T12:49:11;12.40;62.00
48994;DHT22;34804;49.214;12.276;2024-02-21T12:51:38;12.70;61.30
48994;DHT22;34804;49.214;12.276;2024-02-21T12:54:06;12.80;61.10
48994;DHT22;34804;49.214;12.276;2024-02-21T12:56:33;12.60;61.40
48994;DHT22;34804;49.214;12.276;2024-02-21T12:58:59;12.60;63.30
48994;DHT22;34804;49.214;12.276;2024-02-21T13:01:27;12.40;61.40
48994;DHT22;34804;49.214;12.276;2024-02-21T13:03:54;12.40;61.80
48994;DHT22;34804;49.214;12.276;2024-02-21T13:06:22;12.40;58.70
48994;DHT22;34804;49.214;12.276;2024-02-21T13:08:50;12.40;62.30
48994;DHT22;34804;49.214;12.276;2024-02-21T13:11:17;12.40;59.30
48994;DHT22;34804;49.214;12.276;2024-02-21T13:13:44;12.40;63.50
48994;DHT22;34804;49.214;12.276;2024-02-21T13:16:11;12.50;60.90
48994;DHT22;34804;49.214;12.276;2024-02-21T13:18:38;12.70;58.40
48994;DHT22;34804;49.214;12.276;2024-02-21T13:21:06;12.60;57.80
48994;DHT22;34804;49.214;12.276;2024-02-21T13:23:33;12.80;56.80
48994;DHT22;34804;49.214;12.276;2024-02-21T13:26:01;13.30;54.90
48994;DHT22;34804;49.214;12.276;2024-02-21T13:28:31;13.80;53.60
48994;DHT22;34804;49.214;12.276;2024-02-21T13:30:58;13.70;52.10
48994;DHT22;34804;49.214;12.276;2024-02-21T13:33:25;14.30;52.10
48994;DHT22;34804;49.214;12.276;2024-02-21T13:35:52;14.60;49.90
48994;DHT22;34804;49.214;12.276;2024-02-21T13:38:19;14.40;47.20
48994;DHT22;34804;49.214;12.276;2024-02-21T13:40:47;14.10;46.80
48994;DHT22;34804;49.214;12.276;2024-02-21T13:43:14;14.00;48.20
48994;DHT22;34804;49.214;12.276;2024-02-21T13:45:41;13.90;49.00
48994;DHT22;34804;49.214;12.276;2024-02-21T13:48:21;14.30;48.50
48994;DHT22;34804;49.214;12.276;2024-02-21T13:50:48;14.30;46.60
48994;DHT22;34804;49.214;12.276;2024-02-21T13:53:15;13.90;48.70
48994;DHT22;34804;49.214;12.276;2024-02-21T13:55:45;13.50;49.10
48994;DHT22;34804;49.214;12.276;2024-02-21T13:58:12;13.30;49.30
48994;DHT22;34804;49.214;12.276;2024-02-21T14:00:39;13.60;47.60
48994;DHT22;34804;49.214;12.276;2024-02-21T14:03:06;13.70;52.20
48994;DHT22;34804;49.214;12.276;2024-02-21T14:05:33;14.10;54.90
48994;DHT22;34804;49.214;12.276;2024-02-21T14:07:59;13.70;54.30
48994;DHT22;34804;49.214;12.276;2024-02-21T14:10:27;13.80;56.30
48994;DHT22;34804;49.214;12.276;2024-02-21T14:12:55;14.00;53.40
48994;DHT22;34804;49.214;12.276;2024-02-21T14:15:22;14.10;54.60
48994;DHT22;34804;49.214;12.276;2024-02-21T14:17:49;14.70;53.70
48994;DHT22;34804;49.214;12.276;2024-02-21T14:20:16;15.00;52.00
48994;DHT22;34804;49.214;12.276;2024-02-21T14:22:43;14.80;52.10
48994;DHT22;34804;49.214;12.276;2024-02-21T14:25:10;14.80;51.70
48994;DHT22;34804;49.214;12.276;2024-02-21T14:27:37;14.20;52.90
48994;DHT22;34804;49.214;12.276;2024-02-21T14:30:05;13.90;53.60
48994;DHT22;34804;49.214;12.276;2024-02-21T14:32:32;13.10;56.40
48994;DHT22;34804;49.214;12.276;2024-02-21T14:35:02;12.50;58.80
48994;DHT22;34804;49.214;12.276;2024-02-21T14:37:32;12.10;58.30
48994;DHT22;34804;49.214;12.276;2024-02-21T14:39:59;11.90;57.60
48994;DHT22;34804;49.214;12.276;2024-02-21T14:42:28;12.20;58.90
48994;DHT22;34804;49.214;12.276;2024-02-21T14:44:55;12.40;58.00
48994;DHT22;34804;49.214;12.276;2024-02-21T14:47:31;12.30;57.40
48994;DHT22;34804;49.214;12.276;2024-02-21T14:49:59;12.10;57.90
48994;DHT22;34804;49.214;12.276;2024-02-21T14:52:26;12.20;58.30
48994;DHT22;34804;49.214;12.276;2024-02-21T14:54:54;12.20;59.50
48994;DHT22;34804;49.214;12.276;2024-02-21T14:57:21;12.30;59.40
48994;DHT22;34804;49.214;12.276;2024-02-21T14:59:49;12.20;60.00
48994;DHT22;34804;49.214;12.276;2024-02-21T15:02:17;12.00;60.00
48994;DHT22;34804;49.214;12.276;2024-02-21T15:04:44;12.00;60.00
48994;DHT22;34804;49.214;12.276;2024-02-21T15:07:11;11.90;60.30
48994;DHT22;34804;49.214;12.276;2024-02-21T15:09:38;11.80;63.30
48994;DHT22;34804;49.214;12.276;2024-02-21T15:12:05;11.80;61.10
48994;DHT22;34804;49.214;12.276;2024-02-21T15:14:32;11.90;60.80
48994;DHT22;34804;49.214;12.276;2024-02-21T15:16:59;11.90;61.30
48994;DHT22;34804;49.214;12.276;2024-02-21T15:19:26;11.90;61.70
48994;DHT22;34804;49.214;12.276;2024-02-21T15:21:54;11.90;61.90
48994;DHT22;34804;49.214;12.276;2024-02-21T15:24:21;11.90;60.20
48994;DHT22;34804;49.214;12.276;2024-02-21T15:26:47;11.80;61.50
48994;DHT22;34804;49.214;12.276;2024-02-21T15:29:15;11.80;62.30
48994;DHT22;34804;49.214;12.276;2024-02-21T15:31:42;11.90;61.50
48994;DHT22;34804;49.214;12.276;2024-02-21T15:34:13;11.80;62.10
48994;DHT22;34804;49.214;12.276;2024-02-21T15:36:45;11.40;63.80
48994;DHT22;34804;49.214;12.276;2024-02-21T15:39:11;11.30;62.00